createdAt,value
2022-10-30T00:02:01.856Z,21.20
2022-10-30T00:04:30.743Z,17.58
2022-10-30T00:07:00.601Z,27.02
2022-10-30T00:09:36.476Z,19.92
2022-10-30T00:12:09.987Z,21.58
2022-10-30T00:14:43.525Z,19.58
2022-10-30T00:17:11.983Z,17.58
2022-10-30T00:19:46.843Z,16.13
2022-10-30T00:22:21.638Z,19.70
2022-10-30T00:24:49.699Z,22.98
2022-10-30T00:27:26.534Z,18.95
2022-10-30T00:30:03.017Z,19.02
2022-10-30T00:32:34.158Z,21.27
2022-10-30T00:35:08.646Z,20.48
2022-10-30T00:37:37.384Z,24.60
2022-10-30T00:40:07.768Z,26.45
2022-10-30T00:42:36.012Z,27.63
2022-10-30T00:45:18.334Z,28.83
2022-10-30T00:47:55.774Z,28.60
2022-10-30T00:50:44.848Z,25.83
2022-10-30T00:53:19.220Z,23.73
2022-10-30T00:56:06.143Z,23.52
2022-10-30T00:58:42.579Z,24.02
2022-10-30T01:01:36.588Z,25.25
2022-10-30T01:04:29.000Z,27.55
2022-10-30T01:07:14.219Z,35.00
2022-10-30T01:09:43.022Z,34.70
2022-10-30T01:12:15.211Z,36.45
2022-10-30T01:14:58.737Z,30.73
2022-10-30T01:17:49.225Z,26.20
2022-10-30T01:20:52.505Z,20.08
2022-10-30T01:24:02.829Z,27.08
2022-10-30T01:26:47.160Z,22.98
2022-10-30T01:29:55.018Z,20.58
2022-10-30T01:33:01.715Z,21.05
2022-10-30T01:36:19.983Z,25.20
2022-10-30T01:38:57.138Z,21.55
2022-10-30T01:41:33.733Z,19.75
2022-10-30T01:44:14.802Z,20.42
2022-10-30T01:47:27.497Z,29.35
2022-10-30T01:50:38.047Z,25.80
2022-10-30T01:53:33.251Z,23.60
2022-10-30T01:56:38.657Z,23.73
2022-10-30T01:59:30.826Z,23.63
2022-10-30T02:02:05.400Z,19.60
2022-10-30T02:04:34.620Z,24.88
2022-10-30T02:07:06.715Z,20.75
2022-10-30T02:09:45.291Z,24.15
2022-10-30T02:12:22.356Z,25.83
2022-10-30T02:15:05.751Z,23.55
2022-10-30T02:17:40.877Z,25.20
2022-10-30T02:20:20.945Z,23.92
2022-10-30T02:22:53.048Z,35.97
2022-10-30T02:25:26.276Z,40.58
2022-10-30T02:27:58.480Z,34.97
2022-10-30T02:30:40.118Z,33.58
2022-10-30T02:33:15.063Z,34.67
2022-10-30T02:35:57.410Z,37.60
2022-10-30T02:38:32.825Z,33.70
2022-10-30T02:41:05.389Z,35.78
2022-10-30T02:43:35.317Z,37.17
2022-10-30T02:46:15.128Z,39.95
2022-10-30T02:48:46.449Z,34.03
2022-10-30T02:51:22.591Z,33.15
2022-10-30T02:54:00.496Z,29.42
2022-10-30T02:56:35.205Z,30.65
2022-10-30T02:59:07.551Z,27.02
2022-10-30T03:01:42.024Z,24.67
2022-10-30T03:04:11.114Z,26.52
2022-10-30T03:06:46.178Z,24.92
2022-10-30T03:09:14.536Z,23.60
2022-10-30T03:11:47.273Z,24.73
2022-10-30T03:14:21.582Z,25.48
2022-10-30T03:16:53.476Z,26.75
2022-10-30T03:19:22.197Z,30.38
2022-10-30T03:21:58.209Z,28.13
2022-10-30T03:24:38.529Z,31.77
2022-10-30T03:27:18.363Z,30.52
2022-10-30T03:29:50.419Z,35.63
2022-10-30T03:32:32.314Z,30.13
2022-10-30T03:35:03.135Z,27.15
2022-10-30T03:37:35.661Z,27.50
2022-10-30T03:40:13.350Z,26.25
2022-10-30T03:42:46.901Z,23.70
2022-10-30T03:45:23.916Z,28.27
2022-10-30T03:47:56.793Z,24.92
2022-10-30T03:50:35.546Z,28.17
2022-10-30T03:53:11.048Z,30.88
2022-10-30T03:55:56.986Z,26.33
2022-10-30T03:58:42.892Z,23.40
2022-10-30T04:01:29.452Z,24.83
2022-10-30T04:04:03.683Z,20.30
2022-10-30T04:06:42.888Z,21.95
2022-10-30T04:09:19.578Z,22.65
2022-10-30T04:12:03.617Z,21.38
2022-10-30T04:14:39.329Z,25.77
2022-10-30T04:17:15.732Z,21.13
2022-10-30T04:22:17.284Z,23.98
2022-10-30T04:24:49.359Z,23.77
2022-10-30T04:27:21.488Z,27.88
2022-10-30T04:29:59.127Z,18.95
2022-10-30T04:32:32.815Z,20.08
2022-10-30T04:35:10.457Z,21.20
2022-10-30T04:38:08.918Z,20.20
2022-10-30T04:40:44.775Z,35.08
2022-10-30T04:43:17.222Z,20.90
2022-10-30T04:46:04.393Z,32.90
2022-10-30T04:48:41.971Z,24.30
2022-10-30T04:51:11.991Z,25.98
2022-10-30T04:53:44.089Z,24.50
2022-10-30T04:56:19.916Z,25.17
2022-10-30T04:58:53.054Z,23.40
2022-10-30T05:01:28.557Z,25.75
2022-10-30T05:04:06.540Z,26.70
2022-10-30T05:06:45.179Z,23.07
2022-10-30T05:09:18.408Z,27.60
2022-10-30T05:11:48.380Z,29.55
2022-10-30T05:14:17.613Z,31.38
2022-10-30T05:16:48.250Z,32.95
2022-10-30T05:19:17.434Z,31.40
2022-10-30T05:21:53.870Z,35.17
2022-10-30T05:24:25.755Z,34.40
2022-10-30T05:26:55.476Z,28.55
2022-10-30T05:29:25.481Z,29.95
2022-10-30T05:32:00.044Z,27.25
2022-10-30T05:34:57.727Z,23.50
2022-10-30T05:37:26.364Z,29.75
2022-10-30T05:39:54.862Z,27.65
2022-10-30T05:42:31.071Z,24.13
2022-10-30T05:45:05.885Z,26.75
2022-10-30T05:47:38.030Z,32.20
2022-10-30T05:50:07.003Z,33.53
2022-10-30T05:52:36.187Z,33.28
2022-10-30T05:55:05.364Z,34.42
2022-10-30T05:58:02.177Z,35.35
2022-10-30T06:00:34.885Z,37.72
2022-10-30T06:03:07.752Z,36.80
2022-10-30T06:05:37.237Z,34.25
2022-10-30T06:08:07.368Z,44.65
2022-10-30T06:10:38.562Z,29.92
2022-10-30T06:13:20.525Z,27.02
2022-10-30T06:16:02.861Z,25.70
2022-10-30T06:18:56.362Z,24.73
2022-10-30T06:21:25.397Z,23.30
2022-10-30T06:24:12.381Z,25.10
2022-10-30T06:26:52.612Z,26.23
2022-10-30T06:29:24.809Z,26.10
2022-10-30T06:31:52.938Z,25.63
2022-10-30T06:34:21.444Z,24.45
2022-10-30T06:36:52.433Z,23.90
2022-10-30T06:39:25.159Z,21.05
2022-10-30T06:42:13.519Z,26.85
2022-10-30T06:45:13.577Z,28.25
2022-10-30T06:47:45.117Z,29.17
2022-10-30T06:50:15.181Z,27.05
2022-10-30T06:52:46.636Z,19.80
2022-10-30T06:55:15.403Z,19.98
2022-10-30T06:58:03.231Z,22.77
2022-10-30T07:00:53.984Z,21.83
2022-10-30T07:03:42.553Z,18.02
2022-10-30T07:06:18.675Z,24.27
2022-10-30T07:08:52.356Z,21.48
2022-10-30T07:11:20.416Z,26.05
2022-10-30T07:14:09.130Z,19.63
2022-10-30T07:17:06.891Z,31.17
2022-10-30T07:19:35.531Z,28.05
2022-10-30T07:22:06.216Z,37.92
2022-10-30T07:24:36.385Z,70.45
2022-10-30T07:27:17.349Z,71.43
2022-10-30T07:30:09.776Z,58.40
2022-10-30T07:33:03.071Z,82.55
2022-10-30T07:35:56.527Z,53.10
2022-10-30T07:38:44.996Z,38.53
2022-10-30T07:41:34.122Z,63.05
2022-10-30T07:44:21.270Z,23.48
2022-10-30T07:47:08.631Z,12.18
2022-10-30T07:49:51.399Z,15.48
2022-10-30T07:52:19.992Z,16.02
2022-10-30T07:54:54.272Z,14.07
2022-10-30T07:58:01.715Z,18.13
2022-10-30T08:00:58.995Z,15.18
2022-10-30T08:03:44.967Z,15.82
2022-10-30T08:06:26.247Z,20.35
2022-10-30T08:08:57.891Z,16.77
2022-10-30T08:11:29.463Z,14.13
2022-10-30T08:14:02.059Z,16.30
2022-10-30T08:16:31.450Z,14.15
2022-10-30T08:19:01.674Z,14.40
2022-10-30T08:21:31.985Z,14.70
2022-10-30T08:24:12.345Z,14.85
2022-10-30T08:26:44.320Z,20.48
2022-10-30T08:29:14.248Z,15.05
2022-10-30T08:31:44.045Z,13.70
2022-10-30T08:34:15.254Z,17.70
2022-10-30T08:36:54.472Z,16.20
2022-10-30T08:39:22.802Z,19.25
2022-10-30T08:42:10.225Z,21.33
2022-10-30T08:44:48.059Z,25.80
2022-10-30T08:48:01.040Z,32.00
2022-10-30T08:50:32.936Z,20.52
2022-10-30T08:53:03.336Z,21.77
2022-10-30T08:55:39.055Z,33.53
2022-10-30T08:58:17.795Z,62.80
2022-10-30T09:00:47.552Z,47.17
2022-10-30T09:03:16.683Z,35.10
2022-10-30T09:06:17.704Z,23.40
2022-10-30T09:08:55.707Z,66.15
2022-10-30T09:11:49.544Z,25.13
2022-10-30T09:14:17.803Z,20.00
2022-10-30T09:16:47.404Z,16.85
2022-10-30T09:19:25.773Z,15.32
2022-10-30T09:21:57.379Z,15.50
2022-10-30T09:24:28.917Z,18.60
2022-10-30T09:27:02.778Z,14.43
2022-10-30T09:29:38.468Z,16.05
2022-10-30T09:32:11.667Z,14.20
2022-10-30T09:34:54.710Z,20.52
2022-10-30T09:38:05.929Z,18.92
2022-10-30T09:41:02.619Z,15.32
2022-10-30T09:43:57.829Z,15.17
2022-10-30T09:46:46.645Z,16.52
2022-10-30T09:49:36.533Z,13.27
2022-10-30T09:52:16.118Z,15.10
2022-10-30T09:55:05.555Z,31.05
2022-10-30T09:57:46.261Z,52.40
2022-10-30T10:00:31.436Z,31.02
2022-10-30T10:03:21.401Z,56.40
2022-10-30T10:06:18.513Z,14.85
2022-10-30T10:09:34.447Z,13.20
2022-10-30T10:12:30.615Z,14.63
2022-10-30T10:15:13.615Z,15.57
2022-10-30T10:17:47.498Z,13.07
2022-10-30T10:20:47.499Z,13.82
2022-10-30T10:23:53.092Z,17.00
2022-10-30T10:26:31.121Z,15.32
2022-10-30T10:29:11.101Z,11.07
2022-10-30T10:32:25.667Z,10.65
2022-10-30T10:35:31.488Z,12.75
2022-10-30T10:38:05.774Z,25.00
2022-10-30T10:40:40.465Z,15.98
2022-10-30T10:43:17.677Z,13.38
2022-10-30T10:46:05.830Z,14.30
2022-10-30T10:48:54.643Z,12.30
2022-10-30T10:51:41.106Z,13.40
2022-10-30T10:54:26.030Z,13.27
2022-10-30T10:56:57.192Z,12.48
2022-10-30T10:59:42.769Z,12.93
2022-10-30T11:02:30.285Z,13.88
2022-10-30T11:05:12.782Z,11.75
2022-10-30T11:07:53.482Z,12.40
2022-10-30T11:10:23.899Z,13.25
2022-10-30T11:12:52.282Z,13.55
2022-10-30T11:15:51.772Z,14.25
2022-10-30T11:18:20.026Z,15.05
2022-10-30T11:21:10.669Z,13.88
2022-10-30T11:23:48.908Z,12.25
2022-10-30T11:26:20.696Z,13.50
2022-10-30T11:29:06.951Z,14.13
2022-10-30T11:31:44.782Z,11.07
2022-10-30T11:34:21.271Z,15.80
2022-10-30T11:36:54.676Z,13.50
2022-10-30T11:39:27.734Z,12.70
2022-10-30T11:42:06.122Z,12.45
2022-10-30T11:44:39.194Z,14.60
2022-10-30T11:47:16.660Z,11.52
2022-10-30T11:49:52.906Z,13.60
2022-10-30T11:52:27.386Z,22.50
2022-10-30T11:59:04.165Z,15.90
2022-10-30T12:01:36.242Z,15.70
2022-10-30T12:04:27.578Z,15.20
2022-10-30T12:07:28.520Z,14.15
2022-10-30T12:10:02.826Z,16.75
2022-10-30T12:15:52.610Z,15.40
2022-10-30T12:21:06.321Z,15.20
2022-10-30T12:23:37.295Z,17.77
2022-10-30T12:26:13.004Z,16.63
2022-10-30T12:29:01.407Z,17.48
2022-10-30T12:31:50.448Z,17.35
2022-10-30T12:34:57.615Z,17.95
2022-10-30T12:37:41.751Z,16.85
2022-10-30T12:43:25.617Z,13.40
2022-10-30T12:46:20.011Z,14.25
2022-10-30T12:48:56.060Z,20.80
2022-10-30T12:51:31.645Z,21.98
2022-10-30T12:54:33.737Z,20.38
2022-10-30T12:57:27.584Z,25.60
2022-10-30T13:00:04.526Z,18.58
2022-10-30T13:02:53.871Z,21.80
2022-10-30T13:05:46.557Z,16.88
2022-10-30T13:11:46.827Z,30.88
2022-10-30T13:14:41.635Z,16.83
2022-10-30T13:17:16.072Z,19.95
2022-10-30T13:19:48.459Z,25.00
2022-10-30T13:22:35.564Z,24.67
2022-10-30T13:25:21.253Z,22.83
2022-10-30T13:28:29.592Z,25.73
2022-10-30T13:31:18.431Z,19.65
2022-10-30T13:34:01.209Z,19.85
2022-10-30T13:36:40.810Z,24.70
2022-10-30T13:39:13.093Z,17.58
2022-10-30T13:41:47.194Z,17.95
2022-10-30T13:44:24.666Z,16.80
2022-10-30T13:47:23.498Z,15.52
2022-10-30T13:50:15.008Z,18.88
2022-10-30T13:53:14.869Z,17.58
2022-10-30T13:55:49.346Z,19.20
2022-10-30T13:58:48.539Z,17.42
2022-10-30T14:01:49.712Z,19.25
2022-10-30T14:04:27.511Z,20.05
2022-10-30T14:07:27.181Z,22.05
2022-10-30T14:10:00.485Z,16.25
2022-10-30T14:12:47.501Z,18.52
2022-10-30T14:15:38.860Z,18.65
2022-10-30T14:18:36.708Z,17.63
2022-10-30T14:21:33.547Z,24.35
2022-10-30T14:24:21.294Z,15.82
2022-10-30T14:27:09.482Z,19.13
2022-10-30T14:30:11.275Z,26.08
2022-10-30T14:32:42.745Z,25.15
2022-10-30T14:35:41.032Z,28.98
2022-10-30T14:38:15.339Z,31.50
2022-10-30T14:40:58.490Z,26.27
2022-10-30T14:44:00.371Z,40.25
2022-10-30T14:46:59.092Z,47.67
2022-10-30T14:49:45.859Z,46.80
2022-10-30T14:52:43.269Z,48.70
2022-10-30T14:55:35.544Z,50.58
2022-10-30T14:58:04.542Z,44.47
2022-10-30T15:00:56.317Z,41.53
2022-10-30T15:04:08.385Z,48.40
2022-10-30T15:06:40.249Z,54.85
2022-10-30T15:09:29.192Z,58.20
2022-10-30T15:12:41.682Z,109.28
2022-10-30T15:15:18.909Z,90.90
2022-10-30T15:17:53.611Z,63.03
2022-10-30T15:20:43.910Z,50.78
2022-10-30T15:23:20.439Z,64.15
2022-10-30T15:25:51.512Z,83.25
2022-10-30T15:28:21.946Z,78.82
2022-10-30T15:31:03.405Z,99.13
2022-10-30T15:33:33.126Z,110.38
2022-10-30T15:36:24.452Z,116.78
2022-10-30T15:39:07.800Z,140.07
2022-10-30T15:41:41.059Z,158.23
2022-10-30T15:44:18.524Z,152.73
2022-10-30T15:46:49.883Z,150.10
2022-10-30T15:49:29.702Z,162.68
2022-10-30T15:51:58.359Z,179.02
2022-10-30T15:54:28.275Z,174.70
2022-10-30T15:57:36.691Z,168.80
2022-10-30T15:59:52.021Z,169.02
2022-10-30T16:02:22.091Z,176.85
2022-10-30T16:04:55.764Z,174.30
2022-10-30T16:07:28.516Z,175.20
2022-10-30T16:10:18.204Z,154.60
2022-10-30T16:12:56.141Z,133.68
2022-10-30T16:15:34.028Z,125.07
2022-10-30T16:18:20.919Z,124.35
2022-10-30T16:20:54.877Z,138.38
2022-10-30T16:26:01.210Z,152.63
2022-10-30T16:28:32.895Z,146.05
2022-10-30T16:31:07.739Z,133.27
2022-10-30T16:33:36.741Z,105.95
2022-10-30T16:36:06.551Z,94.05
2022-10-30T16:38:42.193Z,98.30
2022-10-30T16:41:27.253Z,95.80
2022-10-30T16:44:14.115Z,99.32
2022-10-30T16:46:52.088Z,151.65
2022-10-30T16:49:28.966Z,135.02
2022-10-30T16:52:06.426Z,92.90
2022-10-30T16:54:38.931Z,100.50
2022-10-30T16:57:19.410Z,139.55
2022-10-30T16:59:57.624Z,109.60
2022-10-30T17:02:29.050Z,138.57
2022-10-30T17:05:06.454Z,158.38
2022-10-30T17:10:39.813Z,123.57
2022-10-30T17:14:06.095Z,108.35
2022-10-30T17:17:32.600Z,90.90
2022-10-30T17:20:31.155Z,124.72
2022-10-30T17:24:22.166Z,175.25
2022-10-30T17:30:55.544Z,146.27
2022-10-30T17:41:04.131Z,220.48
2022-10-30T17:43:48.873Z,145.38
2022-10-30T17:46:20.846Z,174.90
2022-10-30T17:48:52.192Z,157.85
2022-10-30T17:51:23.535Z,172.25
2022-10-30T17:53:55.111Z,180.90
2022-10-30T17:56:33.504Z,193.35
2022-10-30T17:59:04.425Z,197.75
2022-10-30T18:01:35.062Z,245.20
2022-10-30T18:04:19.616Z,247.80
2022-10-30T18:06:56.396Z,231.30
2022-10-30T18:09:25.185Z,212.63
2022-10-30T18:11:59.752Z,213.32
2022-10-30T18:14:37.094Z,198.10
2022-10-30T18:17:07.116Z,177.82
2022-10-30T18:19:38.032Z,205.60
2022-10-30T18:22:09.823Z,210.93
2022-10-30T18:24:43.303Z,271.40
2022-10-30T18:27:13.815Z,225.65
2022-10-30T18:29:42.452Z,234.85
2022-10-30T18:32:12.386Z,211.93
2022-10-30T18:34:41.121Z,217.18
2022-10-30T18:37:17.125Z,191.35
2022-10-30T18:39:46.033Z,201.52
2022-10-30T18:42:15.405Z,180.35
2022-10-30T18:44:47.259Z,176.07
2022-10-30T18:47:46.360Z,181.07
2022-10-30T18:50:18.366Z,184.32
2022-10-30T18:52:47.438Z,124.20
2022-10-30T18:55:26.698Z,143.63
2022-10-30T18:57:56.025Z,143.63
2022-10-30T19:00:45.022Z,165.05
2022-10-30T19:03:27.032Z,147.77
2022-10-30T19:06:00.118Z,153.35
2022-10-30T19:08:43.801Z,148.35
2022-10-30T19:11:33.299Z,136.57
2022-10-30T19:14:13.027Z,137.13
2022-10-30T19:16:42.194Z,127.10
2022-10-30T19:19:15.287Z,131.38
2022-10-30T19:21:44.153Z,117.78
2022-10-30T19:24:17.929Z,153.38
2022-10-30T19:26:49.290Z,184.07
2022-10-30T19:29:19.220Z,203.30
2022-10-30T19:31:50.499Z,206.60
2022-10-30T19:34:19.658Z,176.98
2022-10-30T19:36:48.907Z,139.75
2022-10-30T19:39:17.615Z,140.45
2022-10-30T19:41:47.861Z,136.43
2022-10-30T19:44:16.193Z,206.73
2022-10-30T19:46:44.512Z,177.75
2022-10-30T19:49:20.242Z,186.98
2022-10-30T19:51:51.977Z,209.00
2022-10-30T19:54:22.481Z,184.02
2022-10-30T19:56:52.123Z,169.02
2022-10-30T19:59:30.132Z,196.00
2022-10-30T20:02:01.762Z,186.20
2022-10-30T20:04:30.853Z,214.07
2022-10-30T20:07:02.606Z,192.82
2022-10-30T20:09:33.116Z,181.95
2022-10-30T20:12:07.838Z,208.18
2022-10-30T20:14:39.053Z,205.98
2022-10-30T20:17:09.764Z,224.38
2022-10-30T20:19:40.804Z,233.68
2022-10-30T20:22:13.994Z,244.10
2022-10-30T20:24:57.449Z,217.38
2022-10-30T20:27:28.072Z,208.52
2022-10-30T20:30:02.493Z,208.80
2022-10-30T20:32:50.618Z,187.75
2022-10-30T20:35:22.812Z,171.60
2022-10-30T20:38:05.215Z,193.18
2022-10-30T20:43:39.635Z,166.88
2022-10-30T20:46:10.220Z,163.80
2022-10-30T20:48:51.079Z,168.40
2022-10-30T20:51:37.780Z,146.13
2022-10-30T20:54:06.423Z,102.82
2022-10-30T20:56:48.094Z,116.57
2022-10-30T20:59:26.763Z,103.20
2022-10-30T21:02:01.573Z,118.03
2022-10-30T21:04:35.104Z,175.77
2022-10-30T21:07:12.452Z,158.43
2022-10-30T21:09:44.582Z,96.53
2022-10-30T21:15:05.768Z,88.57
2022-10-30T21:17:38.883Z,101.07
2022-10-30T21:20:21.045Z,102.25
2022-10-30T21:22:52.599Z,109.55
2022-10-30T21:25:32.851Z,121.70
2022-10-30T21:28:38.450Z,128.70
2022-10-30T21:31:11.872Z,124.45
2022-10-30T21:33:59.756Z,131.67
2022-10-30T21:37:00.032Z,131.80
2022-10-30T21:39:36.574Z,135.88
2022-10-30T21:42:18.227Z,127.60
2022-10-30T21:44:55.790Z,137.85
2022-10-30T21:47:24.507Z,131.85
2022-10-30T21:49:57.681Z,119.80
2022-10-30T21:52:27.484Z,120.13
2022-10-30T21:54:58.926Z,134.65
2022-10-30T21:57:29.825Z,136.25
2022-10-30T22:00:05.804Z,170.00
2022-10-30T22:02:42.721Z,168.80
2022-10-30T22:08:14.037Z,181.52
2022-10-30T22:11:29.642Z,168.88
2022-10-30T22:14:04.592Z,140.15
2022-10-30T22:16:43.400Z,132.13
2022-10-30T22:19:12.730Z,133.65
2022-10-30T22:21:42.214Z,125.45
2022-10-30T22:24:15.753Z,137.63
2022-10-30T22:26:45.925Z,137.15
2022-10-30T22:29:22.931Z,124.75
2022-10-30T22:32:10.874Z,120.45
2022-10-30T22:34:43.489Z,123.53
2022-10-30T22:37:14.225Z,136.23
2022-10-30T22:39:44.929Z,138.13
2022-10-30T22:42:14.854Z,132.45
2022-10-30T22:44:49.624Z,107.90
2022-10-30T22:47:17.993Z,106.28
2022-10-30T22:49:46.885Z,105.85
2022-10-30T22:52:15.988Z,108.50
2022-10-30T22:54:44.397Z,107.10
2022-10-30T22:57:12.967Z,105.18
2022-10-30T22:59:41.845Z,106.03
2022-10-30T23:02:16.372Z,96.13
2022-10-30T23:04:45.249Z,87.05
2022-10-30T23:07:14.017Z,88.70
2022-10-30T23:09:42.461Z,85.13
2022-10-30T23:12:11.784Z,79.13
2022-10-30T23:14:40.123Z,63.80
2022-10-30T23:17:18.929Z,63.78
2022-10-30T23:19:48.544Z,62.70
2022-10-30T23:22:17.430Z,55.15
2022-10-30T23:24:48.940Z,53.67
2022-10-30T23:27:18.421Z,50.85
2022-10-30T23:29:48.253Z,44.75
2022-10-30T23:32:16.755Z,60.67
2022-10-30T23:34:45.885Z,76.53
2022-10-30T23:37:14.456Z,70.25
2022-10-30T23:39:42.775Z,107.10
2022-10-30T23:42:11.424Z,102.28
2022-10-30T23:44:39.788Z,96.13
2022-10-30T23:47:09.889Z,93.25
2022-10-30T23:49:38.449Z,68.43
2022-10-30T23:52:07.999Z,38.28
2022-10-30T23:54:36.265Z,55.47
2022-10-30T23:57:05.060Z,43.90
2022-10-30T23:59:33.957Z,97.53
